sensor_id;sensor_type;location;lat;lon;timestamp;temperature;humidity
70234;DHT22;75981;42.636;23.376;2024-02-26T00:00:12;10.49;66.18
70234;DHT22;75981;42.636;23.376;2024-02-26T00:02:38;10.01;67.63
70234;DHT22;75981;42.636;23.376;2024-02-26T00:05:06;9.81;68.60
70234;DHT22;75981;42.636;23.376;2024-02-26T00:07:32;10.16;67.59
70234;DHT22;75981;42.636;23.376;2024-02-26T00:09:57;10.56;66.27
70234;DHT22;75981;42.636;23.376;2024-02-26T00:12:22;10.60;65.76
70234;DHT22;75981;42.636;23.376;2024-02-26T00:14:48;10.57;66.16
70234;DHT22;75981;42.636;23.376;2024-02-26T00:17:15;10.53;66.59
70234;DHT22;75981;42.636;23.376;2024-02-26T00:19:41;10.50;66.83
70234;DHT22;75981;42.636;23.376;2024-02-26T00:22:06;10.98;65.55
70234;DHT22;75981;42.636;23.376;2024-02-26T00:24:32;11.08;65.09
70234;DHT22;75981;42.636;23.376;2024-02-26T00:26:59;11.15;65.09
70234;DHT22;75981;42.636;23.376;2024-02-26T00:29:24;10.96;65.97
70234;DHT22;75981;42.636;23.376;2024-02-26T00:31:51;11.18;65.56
70234;DHT22;75981;42.636;23.376;2024-02-26T00:34:16;11.00;65.77
70234;DHT22;75981;42.636;23.376;2024-02-26T00:36:42;11.15;65.65
70234;DHT22;75981;42.636;23.376;2024-02-26T00:39:08;11.15;65.61
70234;DHT22;75981;42.636;23.376;2024-02-26T00:41:33;11.29;65.22
70234;DHT22;75981;42.636;23.376;2024-02-26T00:44:02;11.28;64.98
70234;DHT22;75981;42.636;23.376;2024-02-26T00:46:28;11.03;65.65
70234;DHT22;75981;42.636;23.376;2024-02-26T00:48:53;11.10;65.56
70234;DHT22;75981;42.636;23.376;2024-02-26T00:51:19;11.22;65.15
70234;DHT22;75981;42.636;23.376;2024-02-26T00:53:44;11.31;65.09
70234;DHT22;75981;42.636;23.376;2024-02-26T00:56:10;11.18;65.51
70234;DHT22;75981;42.636;23.376;2024-02-26T00:58:35;11.14;65.93
70234;DHT22;75981;42.636;23.376;2024-02-26T01:01:00;11.12;66.02
70234;DHT22;75981;42.636;23.376;2024-02-26T01:03:26;11.21;65.87
70234;DHT22;75981;42.636;23.376;2024-02-26T01:05:51;11.18;65.95
70234;DHT22;75981;42.636;23.376;2024-02-26T01:08:17;11.01;66.48
70234;DHT22;75981;42.636;23.376;2024-02-26T01:10:42;11.06;66.24
70234;DHT22;75981;42.636;23.376;2024-02-26T01:13:07;11.03;66.61
70234;DHT22;75981;42.636;23.376;2024-02-26T01:15:33;10.66;67.34
70234;DHT22;75981;42.636;23.376;2024-02-26T01:17:58;10.13;69.50
70234;DHT22;75981;42.636;23.376;2024-02-26T01:20:24;10.20;69.16
70234;DHT22;75981;42.636;23.376;2024-02-26T01:22:49;10.53;68.46
70234;DHT22;75981;42.636;23.376;2024-02-26T01:25:15;10.64;68.23
70234;DHT22;75981;42.636;23.376;2024-02-26T01:27:41;10.71;67.76
70234;DHT22;75981;42.636;23.376;2024-02-26T01:30:08;10.70;68.07
70234;DHT22;75981;42.636;23.376;2024-02-26T01:32:33;10.66;68.04
70234;DHT22;75981;42.636;23.376;2024-02-26T01:35:01;10.55;68.21
70234;DHT22;75981;42.636;23.376;2024-02-26T01:37:28;10.19;69.85
70234;DHT22;75981;42.636;23.376;2024-02-26T01:39:55;10.33;69.64
70234;DHT22;75981;42.636;23.376;2024-02-26T01:42:21;10.12;70.31
70234;DHT22;75981;42.636;23.376;2024-02-26T01:44:46;10.19;70.72
70234;DHT22;75981;42.636;23.376;2024-02-26T01:47:12;10.18;70.44
70234;DHT22;75981;42.636;23.376;2024-02-26T01:49:39;10.12;70.97
70234;DHT22;75981;42.636;23.376;2024-02-26T01:52:06;10.45;69.89
70234;DHT22;75981;42.636;23.376;2024-02-26T01:54:34;10.36;69.99
70234;DHT22;75981;42.636;23.376;2024-02-26T01:57:01;10.59;69.32
70234;DHT22;75981;42.636;23.376;2024-02-26T01:59:27;10.80;68.51
70234;DHT22;75981;42.636;23.376;2024-02-26T02:01:57;10.88;68.25
70234;DHT22;75981;42.636;23.376;2024-02-26T02:04:24;10.85;68.54
70234;DHT22;75981;42.636;23.376;2024-02-26T02:06:50;11.00;67.99
70234;DHT22;75981;42.636;23.376;2024-02-26T02:09:17;10.90;68.30
70234;DHT22;75981;42.636;23.376;2024-02-26T02:11:43;10.84;68.68
70234;DHT22;75981;42.636;23.376;2024-02-26T02:14:09;11.00;68.47
70234;DHT22;75981;42.636;23.376;2024-02-26T02:16:35;10.97;68.42
70234;DHT22;75981;42.636;23.376;2024-02-26T02:19:01;11.04;67.94
70234;DHT22;75981;42.636;23.376;2024-02-26T02:21:26;11.03;67.68
70234;DHT22;75981;42.636;23.376;2024-02-26T02:23:51;11.11;67.49
70234;DHT22;75981;42.636;23.376;2024-02-26T02:26:17;11.10;67.48
70234;DHT22;75981;42.636;23.376;2024-02-26T02:28:44;11.19;67.03
70234;DHT22;75981;42.636;23.376;2024-02-26T02:31:10;11.28;66.85
70234;DHT22;75981;42.636;23.376;2024-02-26T02:33:35;11.07;67.73
70234;DHT22;75981;42.636;23.376;2024-02-26T02:36:01;10.29;70.21
70234;DHT22;75981;42.636;23.376;2024-02-26T02:38:26;10.42;70.40
70234;DHT22;75981;42.636;23.376;2024-02-26T02:40:55;10.61;69.76
70234;DHT22;75981;42.636;23.376;2024-02-26T02:43:20;10.29;70.30
70234;DHT22;75981;42.636;23.376;2024-02-26T02:45:45;10.28;70.42
70234;DHT22;75981;42.636;23.376;2024-02-26T02:48:11;10.23;70.42
70234;DHT22;75981;42.636;23.376;2024-02-26T02:50:37;10.12;70.87
70234;DHT22;75981;42.636;23.376;2024-02-26T02:53:03;10.01;70.73
70234;DHT22;75981;42.636;23.376;2024-02-26T02:55:28;10.13;70.54
70234;DHT22;75981;42.636;23.376;2024-02-26T02:57:54;9.98;71.30
70234;DHT22;75981;42.636;23.376;2024-02-26T03:00:20;10.40;70.02
70234;DHT22;75981;42.636;23.376;2024-02-26T03:02:47;10.49;69.27
70234;DHT22;75981;42.636;23.376;2024-02-26T03:05:13;10.70;68.64
70234;DHT22;75981;42.636;23.376;2024-02-26T03:07:38;10.87;67.93
70234;DHT22;75981;42.636;23.376;2024-02-26T03:10:04;11.01;67.58
70234;DHT22;75981;42.636;23.376;2024-02-26T03:12:30;11.03;67.62
70234;DHT22;75981;42.636;23.376;2024-02-26T03:14:55;11.11;67.50
70234;DHT22;75981;42.636;23.376;2024-02-26T03:17:21;11.18;67.27
70234;DHT22;75981;42.636;23.376;2024-02-26T03:19:47;11.24;67.11
70234;DHT22;75981;42.636;23.376;2024-02-26T03:22:13;11.28;67.15
70234;DHT22;75981;42.636;23.376;2024-02-26T03:24:38;11.17;67.48
70234;DHT22;75981;42.636;23.376;2024-02-26T03:27:04;10.94;68.22
70234;DHT22;75981;42.636;23.376;2024-02-26T03:29:35;10.57;69.73
70234;DHT22;75981;42.636;23.376;2024-02-26T03:32:01;10.16;70.30
70234;DHT22;75981;42.636;23.376;2024-02-26T03:34:26;9.98;70.73
70234;DHT22;75981;42.636;23.376;2024-02-26T03:36:52;10.25;70.06
70234;DHT22;75981;42.636;23.376;2024-02-26T03:39:17;10.59;68.83
70234;DHT22;75981;42.636;23.376;2024-02-26T03:41:43;10.76;68.24
70234;DHT22;75981;42.636;23.376;2024-02-26T03:44:08;10.80;68.27
70234;DHT22;75981;42.636;23.376;2024-02-26T03:46:34;10.88;67.96
70234;DHT22;75981;42.636;23.376;2024-02-26T03:48:59;10.98;67.60
70234;DHT22;75981;42.636;23.376;2024-02-26T03:51:25;10.97;68.23
70234;DHT22;75981;42.636;23.376;2024-02-26T03:53:51;11.03;67.92
70234;DHT22;75981;42.636;23.376;2024-02-26T03:56:17;10.97;68.00
70234;DHT22;75981;42.636;23.376;2024-02-26T03:58:42;10.38;70.11
70234;DHT22;75981;42.636;23.376;2024-02-26T04:01:08;10.13;70.08
70234;DHT22;75981;42.636;23.376;2024-02-26T04:03:34;9.94;70.96
70234;DHT22;75981;42.636;23.376;2024-02-26T04:06:00;10.03;70.20
70234;DHT22;75981;42.636;23.376;2024-02-26T04:08:25;9.87;69.88
70234;DHT22;75981;42.636;23.376;2024-02-26T04:10:50;10.01;69.98
70234;DHT22;75981;42.636;23.376;2024-02-26T04:13:17;10.22;68.98
70234;DHT22;75981;42.636;23.376;2024-02-26T04:15:43;10.33;68.65
70234;DHT22;75981;42.636;23.376;2024-02-26T04:18:08;10.69;67.58
70234;DHT22;75981;42.636;23.376;2024-02-26T04:20:34;10.22;68.83
70234;DHT22;75981;42.636;23.376;2024-02-26T04:22:59;9.57;70.84
70234;DHT22;75981;42.636;23.376;2024-02-26T04:25:24;9.65;70.53
70234;DHT22;75981;42.636;23.376;2024-02-26T04:27:50;9.50;70.81
70234;DHT22;75981;42.636;23.376;2024-02-26T04:30:15;9.64;70.80
70234;DHT22;75981;42.636;23.376;2024-02-26T04:32:42;9.65;70.78
70234;DHT22;75981;42.636;23.376;2024-02-26T04:35:07;9.41;71.40
70234;DHT22;75981;42.636;23.376;2024-02-26T04:37:33;9.22;71.96
70234;DHT22;75981;42.636;23.376;2024-02-26T04:40:00;9.36;71.61
70234;DHT22;75981;42.636;23.376;2024-02-26T04:42:26;9.34;71.93
70234;DHT22;75981;42.636;23.376;2024-02-26T04:44:51;9.43;71.74
70234;DHT22;75981;42.636;23.376;2024-02-26T04:47:17;9.26;71.74
70234;DHT22;75981;42.636;23.376;2024-02-26T04:49:42;8.95;72.98
70234;DHT22;75981;42.636;23.376;2024-02-26T04:52:08;8.88;73.40
70234;DHT22;75981;42.636;23.376;2024-02-26T04:54:33;8.81;73.63
70234;DHT22;75981;42.636;23.376;2024-02-26T04:56:59;8.67;74.23
70234;DHT22;75981;42.636;23.376;2024-02-26T04:59:24;8.30;75.44
70234;DHT22;75981;42.636;23.376;2024-02-26T05:01:50;8.68;74.80
70234;DHT22;75981;42.636;23.376;2024-02-26T05:04:18;8.48;75.49
70234;DHT22;75981;42.636;23.376;2024-02-26T05:06:43;8.29;76.85
70234;DHT22;75981;42.636;23.376;2024-02-26T05:09:08;8.03;77.36
70234;DHT22;75981;42.636;23.376;2024-02-26T05:11:34;7.99;77.71
70234;DHT22;75981;42.636;23.376;2024-02-26T05:14:00;7.99;78.23
70234;DHT22;75981;42.636;23.376;2024-02-26T05:16:26;8.14;77.99
70234;DHT22;75981;42.636;23.376;2024-02-26T05:18:52;8.13;78.48
70234;DHT22;75981;42.636;23.376;2024-02-26T05:21:18;7.90;79.49
70234;DHT22;75981;42.636;23.376;2024-02-26T05:23:43;8.36;77.90
70234;DHT22;75981;42.636;23.376;2024-02-26T05:26:09;8.24;77.90
70234;DHT22;75981;42.636;23.376;2024-02-26T05:28:35;8.40;77.41
70234;DHT22;75981;42.636;23.376;2024-02-26T05:31:01;8.38;76.88
70234;DHT22;75981;42.636;23.376;2024-02-26T05:33:26;8.68;76.29
70234;DHT22;75981;42.636;23.376;2024-02-26T05:35:52;8.54;76.55
70234;DHT22;75981;42.636;23.376;2024-02-26T05:38:17;8.26;77.49
70234;DHT22;75981;42.636;23.376;2024-02-26T05:40:43;8.38;77.01
70234;DHT22;75981;42.636;23.376;2024-02-26T05:43:08;8.68;76.44
70234;DHT22;75981;42.636;23.376;2024-02-26T05:45:33;9.03;75.19
70234;DHT22;75981;42.636;23.376;2024-02-26T05:47:59;9.36;73.86
70234;DHT22;75981;42.636;23.376;2024-02-26T05:50:24;9.05;74.48
70234;DHT22;75981;42.636;23.376;2024-02-26T05:52:50;9.40;73.35
70234;DHT22;75981;42.636;23.376;2024-02-26T05:55:16;9.23;73.70
70234;DHT22;75981;42.636;23.376;2024-02-26T05:57:41;9.40;73.16
70234;DHT22;75981;42.636;23.376;2024-02-26T06:00:07;9.61;72.25
70234;DHT22;75981;42.636;23.376;2024-02-26T06:02:33;9.87;71.52
70234;DHT22;75981;42.636;23.376;2024-02-26T06:04:58;9.32;73.28
70234;DHT22;75981;42.636;23.376;2024-02-26T06:07:24;9.47;73.44
70234;DHT22;75981;42.636;23.376;2024-02-26T06:09:50;10.55;77.70
70234;DHT22;75981;42.636;23.376;2024-02-26T06:12:15;10.56;72.88
70234;DHT22;75981;42.636;23.376;2024-02-26T06:14:43;10.53;73.57
70234;DHT22;75981;42.636;23.376;2024-02-26T06:17:08;10.66;72.78
70234;DHT22;75981;42.636;23.376;2024-02-26T06:19:34;10.73;71.37
70234;DHT22;75981;42.636;23.376;2024-02-26T06:21:59;10.66;69.98
70234;DHT22;75981;42.636;23.376;2024-02-26T06:24:25;10.35;70.14
70234;DHT22;75981;42.636;23.376;2024-02-26T06:26:50;10.38;69.93
70234;DHT22;75981;42.636;23.376;2024-02-26T06:29:15;10.42;69.81
70234;DHT22;75981;42.636;23.376;2024-02-26T06:31:41;10.33;70.21
70234;DHT22;75981;42.636;23.376;2024-02-26T06:34:06;10.25;70.53
70234;DHT22;75981;42.636;23.376;2024-02-26T06:36:32;10.12;70.98
70234;DHT22;75981;42.636;23.376;2024-02-26T06:38:58;10.03;71.10
70234;DHT22;75981;42.636;23.376;2024-02-26T06:41:23;9.64;71.75
70234;DHT22;75981;42.636;23.376;2024-02-26T06:43:54;9.20;73.76
70234;DHT22;75981;42.636;23.376;2024-02-26T06:46:19;9.33;73.45
70234;DHT22;75981;42.636;23.376;2024-02-26T06:48:45;9.39;73.46
70234;DHT22;75981;42.636;23.376;2024-02-26T06:51:10;9.57;72.59
70234;DHT22;75981;42.636;23.376;2024-02-26T06:53:36;9.30;73.07
70234;DHT22;75981;42.636;23.376;2024-02-26T06:56:01;9.40;73.06
70234;DHT22;75981;42.636;23.376;2024-02-26T06:58:27;9.62;72.76
70234;DHT22;75981;42.636;23.376;2024-02-26T07:00:52;9.53;72.39
70234;DHT22;75981;42.636;23.376;2024-02-26T07:03:18;9.64;72.29
70234;DHT22;75981;42.636;23.376;2024-02-26T07:05:43;9.57;72.45
70234;DHT22;75981;42.636;23.376;2024-02-26T07:08:10;9.71;72.26
70234;DHT22;75981;42.636;23.376;2024-02-26T07:10:36;9.94;72.07
70234;DHT22;75981;42.636;23.376;2024-02-26T07:13:01;10.16;71.34
70234;DHT22;75981;42.636;23.376;2024-02-26T07:15:27;10.05;71.32
70234;DHT22;75981;42.636;23.376;2024-02-26T07:17:53;9.90;71.63
70234;DHT22;75981;42.636;23.376;2024-02-26T07:20:18;9.67;72.63
70234;DHT22;75981;42.636;23.376;2024-02-26T07:22:44;9.58;73.03
70234;DHT22;75981;42.636;23.376;2024-02-26T07:25:09;9.48;73.81
70234;DHT22;75981;42.636;23.376;2024-02-26T07:27:39;9.57;73.70
70234;DHT22;75981;42.636;23.376;2024-02-26T07:30:05;9.73;73.08
70234;DHT22;75981;42.636;23.376;2024-02-26T07:32:30;9.77;72.48
70234;DHT22;75981;42.636;23.376;2024-02-26T07:34:56;9.67;72.71
70234;DHT22;75981;42.636;23.376;2024-02-26T07:37:21;9.87;72.07
70234;DHT22;75981;42.636;23.376;2024-02-26T07:39:46;10.06;71.25
70234;DHT22;75981;42.636;23.376;2024-02-26T07:42:12;10.29;70.97
70234;DHT22;75981;42.636;23.376;2024-02-26T07:44:37;10.29;70.70
70234;DHT22;75981;42.636;23.376;2024-02-26T07:47:03;10.13;71.45
70234;DHT22;75981;42.636;23.376;2024-02-26T07:49:28;10.40;70.80
70234;DHT22;75981;42.636;23.376;2024-02-26T07:51:54;10.22;71.33
70234;DHT22;75981;42.636;23.376;2024-02-26T07:54:20;10.29;71.26
70234;DHT22;75981;42.636;23.376;2024-02-26T07:56:45;10.22;71.56
70234;DHT22;75981;42.636;23.376;2024-02-26T07:59:10;10.40;70.75
70234;DHT22;75981;42.636;23.376;2024-02-26T08:01:36;10.32;70.90
70234;DHT22;75981;42.636;23.376;2024-02-26T08:04:04;10.42;70.99
70234;DHT22;75981;42.636;23.376;2024-02-26T08:06:30;10.43;71.03
70234;DHT22;75981;42.636;23.376;2024-02-26T08:08:55;10.56;70.12
70234;DHT22;75981;42.636;23.376;2024-02-26T08:11:21;10.56;70.16
70234;DHT22;75981;42.636;23.376;2024-02-26T08:13:46;10.63;70.19
70234;DHT22;75981;42.636;23.376;2024-02-26T08:16:12;10.84;69.92
70234;DHT22;75981;42.636;23.376;2024-02-26T08:18:37;10.88;69.16
70234;DHT22;75981;42.636;23.376;2024-02-26T08:21:03;10.90;69.19
70234;DHT22;75981;42.636;23.376;2024-02-26T08:23:28;11.03;69.02
70234;DHT22;75981;42.636;23.376;2024-02-26T08:25:54;10.90;68.48
70234;DHT22;75981;42.636;23.376;2024-02-26T08:28:19;10.81;68.55
70234;DHT22;75981;42.636;23.376;2024-02-26T08:30:45;10.88;68.67
70234;DHT22;75981;42.636;23.376;2024-02-26T08:33:10;11.12;68.46
70234;DHT22;75981;42.636;23.376;2024-02-26T08:35:36;11.17;68.09
70234;DHT22;75981;42.636;23.376;2024-02-26T08:38:02;11.29;68.09
70234;DHT22;75981;42.636;23.376;2024-02-26T08:40:29;11.43;67.85
70234;DHT22;75981;42.636;23.376;2024-02-26T08:42:54;11.22;68.21
70234;DHT22;75981;42.636;23.376;2024-02-26T08:45:20;11.39;67.72
70234;DHT22;75981;42.636;23.376;2024-02-26T08:47:45;11.28;67.73
70234;DHT22;75981;42.636;23.376;2024-02-26T08:50:11;11.36;67.34
70234;DHT22;75981;42.636;23.376;2024-02-26T08:52:38;11.36;67.32
70234;DHT22;75981;42.636;23.376;2024-02-26T08:55:03;11.32;67.69
70234;DHT22;75981;42.636;23.376;2024-02-26T08:57:31;11.46;67.25
70234;DHT22;75981;42.636;23.376;2024-02-26T08:59:59;11.62;66.87
70234;DHT22;75981;42.636;23.376;2024-02-26T09:02:25;11.75;66.12
70234;DHT22;75981;42.636;23.376;2024-02-26T09:04:51;11.70;66.65
70234;DHT22;75981;42.636;23.376;2024-02-26T09:07:18;11.54;66.89
70234;DHT22;75981;42.636;23.376;2024-02-26T09:09:44;11.59;67.19
70234;DHT22;75981;42.636;23.376;2024-02-26T09:12:09;11.65;66.20
70234;DHT22;75981;42.636;23.376;2024-02-26T09:14:35;11.62;66.64
70234;DHT22;75981;42.636;23.376;2024-02-26T09:17:00;11.86;66.29
70234;DHT22;75981;42.636;23.376;2024-02-26T09:19:26;11.87;65.81
70234;DHT22;75981;42.636;23.376;2024-02-26T09:21:53;11.87;65.60
70234;DHT22;75981;42.636;23.376;2024-02-26T09:24:22;11.97;64.69
70234;DHT22;75981;42.636;23.376;2024-02-26T09:26:48;11.93;65.01
70234;DHT22;75981;42.636;23.376;2024-02-26T09:29:14;12.13;64.23
70234;DHT22;75981;42.636;23.376;2024-02-26T09:31:39;12.04;63.99
70234;DHT22;75981;42.636;23.376;2024-02-26T09:34:07;12.01;64.54
70234;DHT22;75981;42.636;23.376;2024-02-26T09:36:33;12.12;64.66
70234;DHT22;75981;42.636;23.376;2024-02-26T09:38:58;12.07;64.92
70234;DHT22;75981;42.636;23.376;2024-02-26T09:41:27;12.12;64.93
70234;DHT22;75981;42.636;23.376;2024-02-26T09:43:55;12.08;65.02
70234;DHT22;75981;42.636;23.376;2024-02-26T09:46:21;12.31;64.32
70234;DHT22;75981;42.636;23.376;2024-02-26T09:48:47;12.45;63.83
70234;DHT22;75981;42.636;23.376;2024-02-26T09:51:14;12.41;64.11
70234;DHT22;75981;42.636;23.376;2024-02-26T09:53:43;12.37;64.00
70234;DHT22;75981;42.636;23.376;2024-02-26T09:56:11;12.54;63.44
70234;DHT22;75981;42.636;23.376;2024-02-26T09:58:37;12.44;63.57
70234;DHT22;75981;42.636;23.376;2024-02-26T10:01:07;12.48;62.69
70234;DHT22;75981;42.636;23.376;2024-02-26T10:03:39;12.51;62.71
70234;DHT22;75981;42.636;23.376;2024-02-26T10:06:08;12.35;62.96
70234;DHT22;75981;42.636;23.376;2024-02-26T10:08:35;12.58;62.09
70234;DHT22;75981;42.636;23.376;2024-02-26T10:11:00;12.58;62.09
70234;DHT22;75981;42.636;23.376;2024-02-26T10:13:26;12.55;61.86
70234;DHT22;75981;42.636;23.376;2024-02-26T10:15:52;12.66;62.04
70234;DHT22;75981;42.636;23.376;2024-02-26T10:18:18;12.52;62.44
70234;DHT22;75981;42.636;23.376;2024-02-26T10:21:01;12.64;62.39
70234;DHT22;75981;42.636;23.376;2024-02-26T10:23:27;12.66;61.99
70234;DHT22;75981;42.636;23.376;2024-02-26T10:25:56;12.35;62.48
70234;DHT22;75981;42.636;23.376;2024-02-26T10:28:22;12.59;62.14
70234;DHT22;75981;42.636;23.376;2024-02-26T10:30:48;12.65;61.21
70234;DHT22;75981;42.636;23.376;2024-02-26T10:33:13;12.62;61.31
70234;DHT22;75981;42.636;23.376;2024-02-26T10:35:44;12.76;61.11
70234;DHT22;75981;42.636;23.376;2024-02-26T10:38:10;12.68;60.89
70234;DHT22;75981;42.636;23.376;2024-02-26T10:40:35;12.55;61.59
70234;DHT22;75981;42.636;23.376;2024-02-26T10:43:02;12.72;61.35
70234;DHT22;75981;42.636;23.376;2024-02-26T10:45:28;12.71;61.12
70234;DHT22;75981;42.636;23.376;2024-02-26T10:47:53;12.66;60.97
70234;DHT22;75981;42.636;23.376;2024-02-26T10:50:19;12.89;60.29
70234;DHT22;75981;42.636;23.376;2024-02-26T10:52:45;12.83;60.70
70234;DHT22;75981;42.636;23.376;2024-02-26T10:55:15;12.89;60.66
70234;DHT22;75981;42.636;23.376;2024-02-26T10:57:44;12.82;60.06
70234;DHT22;75981;42.636;23.376;2024-02-26T11:00:13;13.03;59.97
70234;DHT22;75981;42.636;23.376;2024-02-26T11:02:40;13.07;59.56
70234;DHT22;75981;42.636;23.376;2024-02-26T11:05:08;12.93;59.68
70234;DHT22;75981;42.636;23.376;2024-02-26T11:07:37;13.06;59.77
70234;DHT22;75981;42.636;23.376;2024-02-26T11:10:06;12.79;60.14
70234;DHT22;75981;42.636;23.376;2024-02-26T11:12:32;12.99;59.22
70234;DHT22;75981;42.636;23.376;2024-02-26T11:15:01;13.02;58.96
70234;DHT22;75981;42.636;23.376;2024-02-26T11:17:28;13.03;59.11
70234;DHT22;75981;42.636;23.376;2024-02-26T11:19:56;12.92;60.02
70234;DHT22;75981;42.636;23.376;2024-02-26T11:22:26;12.93;60.17
70234;DHT22;75981;42.636;23.376;2024-02-26T11:24:53;13.12;59.67
70234;DHT22;75981;42.636;23.376;2024-02-26T11:27:23;13.22;59.01
70234;DHT22;75981;42.636;23.376;2024-02-26T11:29:51;13.13;59.20
70234;DHT22;75981;42.636;23.376;2024-02-26T11:32:17;13.13;58.86
70234;DHT22;75981;42.636;23.376;2024-02-26T11:34:44;13.24;58.30
70234;DHT22;75981;42.636;23.376;2024-02-26T11:37:14;13.41;58.20
70234;DHT22;75981;42.636;23.376;2024-02-26T11:39:41;13.41;57.89
70234;DHT22;75981;42.636;23.376;2024-02-26T11:42:07;13.36;58.18
70234;DHT22;75981;42.636;23.376;2024-02-26T11:44:33;13.37;57.20
70234;DHT22;75981;42.636;23.376;2024-02-26T11:46:59;13.14;57.73
70234;DHT22;75981;42.636;23.376;2024-02-26T11:49:34;13.19;57.56
70234;DHT22;75981;42.636;23.376;2024-02-26T11:52:05;13.14;57.74
70234;DHT22;75981;42.636;23.376;2024-02-26T11:54:53;13.28;57.34
70234;DHT22;75981;42.636;23.376;2024-02-26T11:57:30;13.14;57.31
70234;DHT22;75981;42.636;23.376;2024-02-26T12:00:16;13.26;57.35
70234;DHT22;75981;42.636;23.376;2024-02-26T12:02:55;13.16;57.51
70234;DHT22;75981;42.636;23.376;2024-02-26T12:05:26;13.41;56.79
70234;DHT22;75981;42.636;23.376;2024-02-26T12:07:55;13.40;57.03
70234;DHT22;75981;42.636;23.376;2024-02-26T12:12:47;13.60;56.48
70234;DHT22;75981;42.636;23.376;2024-02-26T12:15:15;13.71;56.11
70234;DHT22;75981;42.636;23.376;2024-02-26T12:17:41;13.55;56.17
70234;DHT22;75981;42.636;23.376;2024-02-26T12:20:11;13.61;56.28
70234;DHT22;75981;42.636;23.376;2024-02-26T12:22:39;13.86;55.04
70234;DHT22;75981;42.636;23.376;2024-02-26T12:25:06;14.05;54.80
70234;DHT22;75981;42.636;23.376;2024-02-26T12:27:31;14.09;54.31
70234;DHT22;75981;42.636;23.376;2024-02-26T12:29:58;13.94;54.86
70234;DHT22;75981;42.636;23.376;2024-02-26T12:32:23;14.18;53.95
70234;DHT22;75981;42.636;23.376;2024-02-26T12:34:49;14.21;53.57
70234;DHT22;75981;42.636;23.376;2024-02-26T12:37:16;14.46;53.25
70234;DHT22;75981;42.636;23.376;2024-02-26T12:39:41;14.61;52.47
70234;DHT22;75981;42.636;23.376;2024-02-26T12:42:08;14.64;52.03
70234;DHT22;75981;42.636;23.376;2024-02-26T12:44:34;14.57;52.45
70234;DHT22;75981;42.636;23.376;2024-02-26T12:47:01;14.43;52.73
70234;DHT22;75981;42.636;23.376;2024-02-26T12:49:28;14.53;51.86
70234;DHT22;75981;42.636;23.376;2024-02-26T12:51:53;14.50;52.07
70234;DHT22;75981;42.636;23.376;2024-02-26T12:54:19;14.32;52.96
70234;DHT22;75981;42.636;23.376;2024-02-26T12:56:44;14.34;52.48
70234;DHT22;75981;42.636;23.376;2024-02-26T12:59:10;14.39;52.43
70234;DHT22;75981;42.636;23.376;2024-02-26T13:01:36;14.29;52.22
70234;DHT22;75981;42.636;23.376;2024-02-26T13:04:02;14.36;51.87
70234;DHT22;75981;42.636;23.376;2024-02-26T13:06:32;14.49;51.47
70234;DHT22;75981;42.636;23.376;2024-02-26T13:08:59;14.43;51.81
70234;DHT22;75981;42.636;23.376;2024-02-26T13:11:25;14.49;51.29
70234;DHT22;75981;42.636;23.376;2024-02-26T13:13:50;14.42;51.17
70234;DHT22;75981;42.636;23.376;2024-02-26T13:16:16;14.42;50.84
70234;DHT22;75981;42.636;23.376;2024-02-26T13:18:42;14.39;51.20
70234;DHT22;75981;42.636;23.376;2024-02-26T13:21:15;14.33;51.44
70234;DHT22;75981;42.636;23.376;2024-02-26T13:23:42;14.53;50.97
70234;DHT22;75981;42.636;23.376;2024-02-26T13:26:09;14.57;50.95
70234;DHT22;75981;42.636;23.376;2024-02-26T13:28:36;14.34;51.70
70234;DHT22;75981;42.636;23.376;2024-02-26T13:31:02;14.28;51.52
70234;DHT22;75981;42.636;23.376;2024-02-26T13:33:30;14.33;51.15
70234;DHT22;75981;42.636;23.376;2024-02-26T13:35:57;14.50;50.88
70234;DHT22;75981;42.636;23.376;2024-02-26T13:38:22;14.57;50.57
70234;DHT22;75981;42.636;23.376;2024-02-26T13:40:49;14.30;50.93
70234;DHT22;75981;42.636;23.376;2024-02-26T13:43:14;14.30;51.02
70234;DHT22;75981;42.636;23.376;2024-02-26T13:45:40;14.40;50.56
70234;DHT22;75981;42.636;23.376;2024-02-26T13:48:07;14.49;50.16
70234;DHT22;75981;42.636;23.376;2024-02-26T13:50:35;14.60;49.85
70234;DHT22;75981;42.636;23.376;2024-02-26T13:53:02;14.55;49.69
70234;DHT22;75981;42.636;23.376;2024-02-26T13:55:30;14.51;49.97
70234;DHT22;75981;42.636;23.376;2024-02-26T13:57:57;14.51;49.87
70234;DHT22;75981;42.636;23.376;2024-02-26T14:00:24;14.49;50.08
70234;DHT22;75981;42.636;23.376;2024-02-26T14:02:50;14.57;49.70
70234;DHT22;75981;42.636;23.376;2024-02-26T14:05:16;14.61;49.35
70234;DHT22;75981;42.636;23.376;2024-02-26T14:07:42;14.69;49.39
70234;DHT22;75981;42.636;23.376;2024-02-26T14:10:08;14.50;49.12
70234;DHT22;75981;42.636;23.376;2024-02-26T14:12:35;14.42;49.59
70234;DHT22;75981;42.636;23.376;2024-02-26T14:15:00;14.37;49.16
70234;DHT22;75981;42.636;23.376;2024-02-26T14:17:29;14.42;49.20
70234;DHT22;75981;42.636;23.376;2024-02-26T14:19:55;14.34;49.27
70234;DHT22;75981;42.636;23.376;2024-02-26T14:22:20;14.43;49.06
70234;DHT22;75981;42.636;23.376;2024-02-26T14:24:46;14.39;48.78
70234;DHT22;75981;42.636;23.376;2024-02-26T14:27:12;14.32;48.88
70234;DHT22;75981;42.636;23.376;2024-02-26T14:29:41;14.42;48.31
70234;DHT22;75981;42.636;23.376;2024-02-26T14:32:08;14.21;48.57
70234;DHT22;75981;42.636;23.376;2024-02-26T14:34:34;14.11;48.72
70234;DHT22;75981;42.636;23.376;2024-02-26T14:36:59;14.05;49.32
70234;DHT22;75981;42.636;23.376;2024-02-26T14:39:25;14.12;49.28
70234;DHT22;75981;42.636;23.376;2024-02-26T14:41:50;14.15;49.08
70234;DHT22;75981;42.636;23.376;2024-02-26T14:44:16;14.09;49.14
70234;DHT22;75981;42.636;23.376;2024-02-26T14:46:41;14.04;49.36
70234;DHT22;75981;42.636;23.376;2024-02-26T14:49:07;13.98;49.30
70234;DHT22;75981;42.636;23.376;2024-02-26T14:51:32;14.11;49.33
70234;DHT22;75981;42.636;23.376;2024-02-26T14:53:58;14.02;49.17
70234;DHT22;75981;42.636;23.376;2024-02-26T14:56:25;14.12;49.27
70234;DHT22;75981;42.636;23.376;2024-02-26T14:58:51;13.97;49.68
70234;DHT22;75981;42.636;23.376;2024-02-26T15:01:16;13.88;50.03
70234;DHT22;75981;42.636;23.376;2024-02-26T15:03:42;14.01;49.62
70234;DHT22;75981;42.636;23.376;2024-02-26T15:06:07;13.95;49.88
70234;DHT22;75981;42.636;23.376;2024-02-26T15:08:33;13.91;50.04
70234;DHT22;75981;42.636;23.376;2024-02-26T15:10:58;13.86;49.63
70234;DHT22;75981;42.636;23.376;2024-02-26T15:13:25;13.86;49.52
70234;DHT22;75981;42.636;23.376;2024-02-26T15:15:50;13.81;49.69